sensor_id;sensor_type;location;lat;lon;timestamp;P1;durP1;ratioP1;P2;durP2;ratioP2
65315;SDS011;51920;53.952;10.292;2022-12-10T00:01:27;35.10;;;11.07;;
65315;SDS011;51920;53.952;10.292;2022-12-10T00:03:54;31.73;;;10.55;;
65315;SDS011;51920;53.952;10.292;2022-12-10T00:06:21;32.90;;;10.97;;
65315;SDS011;51920;53.952;10.292;2022-12-10T00:08:48;31.42;;;10.13;;
65315;SDS011;51920;53.952;10.292;2022-12-10T00:11:15;33.15;;;10.70;;
65315;SDS011;51920;53.952;10.292;2022-12-10T00:13:41;32.38;;;10.45;;
65315;SDS011;51920;53.952;10.292;2022-12-10T00:16:09;35.38;;;11.70;;
65315;SDS011;51920;53.952;10.292;2022-12-10T00:18:36;30.20;;;10.50;;
65315;SDS011;51920;53.952;10.292;2022-12-10T00:21:03;29.38;;;10.48;;
65315;SDS011;51920;53.952;10.292;2022-12-10T00:23:30;36.63;;;11.77;;
65315;SDS011;51920;53.952;10.292;2022-12-10T00:26:07;31.70;;;10.55;;
65315;SDS011;51920;53.952;10.292;2022-12-10T00:28:40;31.60;;;11.10;;
65315;SDS011;51920;53.952;10.292;2022-12-10T00:31:11;30.33;;;10.17;;
65315;SDS011;51920;53.952;10.292;2022-12-10T00:33:39;33.80;;;11.05;;
65315;SDS011;51920;53.952;10.292;2022-12-10T00:36:10;35.35;;;11.43;;
65315;SDS011;51920;53.952;10.292;2022-12-10T00:38:37;30.92;;;10.73;;
65315;SDS011;51920;53.952;10.292;2022-12-10T00:41:04;32.45;;;11.32;;
65315;SDS011;51920;53.952;10.292;2022-12-10T00:43:31;34.40;;;11.57;;
65315;SDS011;51920;53.952;10.292;2022-12-10T00:45:58;35.15;;;11.27;;
65315;SDS011;51920;53.952;10.292;2022-12-10T00:48:23;36.42;;;11.82;;
65315;SDS011;51920;53.952;10.292;2022-12-10T00:50:56;33.13;;;11.37;;
65315;SDS011;51920;53.952;10.292;2022-12-10T00:53:26;33.50;;;11.05;;
65315;SDS011;51920;53.952;10.292;2022-12-10T00:55:53;32.50;;;10.10;;
65315;SDS011;51920;53.952;10.292;2022-12-10T00:58:19;32.00;;;10.20;;
65315;SDS011;51920;53.952;10.292;2022-12-10T01:00:44;30.50;;;10.93;;
65315;SDS011;51920;53.952;10.292;2022-12-10T01:03:10;31.43;;;11.43;;
65315;SDS011;51920;53.952;10.292;2022-12-10T01:05:35;35.00;;;10.90;;
65315;SDS011;51920;53.952;10.292;2022-12-10T01:08:00;30.33;;;10.48;;
65315;SDS011;51920;53.952;10.292;2022-12-10T01:10:26;35.40;;;11.83;;
65315;SDS011;51920;53.952;10.292;2022-12-10T01:12:51;34.43;;;10.57;;
65315;SDS011;51920;53.952;10.292;2022-12-10T01:15:17;32.10;;;11.07;;
65315;SDS011;51920;53.952;10.292;2022-12-10T01:17:43;32.15;;;10.85;;
65315;SDS011;51920;53.952;10.292;2022-12-10T01:20:08;31.53;;;11.77;;
65315;SDS011;51920;53.952;10.292;2022-12-10T01:22:34;34.40;;;10.73;;
65315;SDS011;51920;53.952;10.292;2022-12-10T01:24:59;35.43;;;11.90;;
65315;SDS011;51920;53.952;10.292;2022-12-10T01:27:25;32.63;;;11.43;;
65315;SDS011;51920;53.952;10.292;2022-12-10T01:29:51;34.17;;;11.80;;
65315;SDS011;51920;53.952;10.292;2022-12-10T01:32:16;34.23;;;11.17;;
65315;SDS011;51920;53.952;10.292;2022-12-10T01:34:42;34.23;;;11.17;;
65315;SDS011;51920;53.952;10.292;2022-12-10T01:37:07;37.83;;;11.60;;
65315;SDS011;51920;53.952;10.292;2022-12-10T01:39:32;34.30;;;11.67;;
65315;SDS011;51920;53.952;10.292;2022-12-10T01:41:59;34.15;;;11.73;;
65315;SDS011;51920;53.952;10.292;2022-12-10T01:46:54;34.17;;;11.73;;
65315;SDS011;51920;53.952;10.292;2022-12-10T01:49:24;34.95;;;11.13;;
65315;SDS011;51920;53.952;10.292;2022-12-10T01:52:03;32.33;;;11.00;;
65315;SDS011;51920;53.952;10.292;2022-12-10T01:54:32;33.30;;;10.90;;
65315;SDS011;51920;53.952;10.292;2022-12-10T01:57:00;32.03;;;11.18;;
65315;SDS011;51920;53.952;10.292;2022-12-10T01:59:28;30.80;;;10.20;;
65315;SDS011;51920;53.952;10.292;2022-12-10T02:01:58;33.80;;;11.18;;
65315;SDS011;51920;53.952;10.292;2022-12-10T02:10:19;32.42;;;10.60;;
65315;SDS011;51920;53.952;10.292;2022-12-10T02:15:55;33.70;;;10.93;;
65315;SDS011;51920;53.952;10.292;2022-12-10T02:19:09;30.58;;;10.85;;
65315;SDS011;51920;53.952;10.292;2022-12-10T02:21:22;27.10;;;9.65;;
65315;SDS011;51920;53.952;10.292;2022-12-10T02:23:54;28.65;;;10.20;;
65315;SDS011;51920;53.952;10.292;2022-12-10T02:26:31;25.73;;;9.37;;
65315;SDS011;51920;53.952;10.292;2022-12-10T02:31:39;26.35;;;9.35;;
65315;SDS011;51920;53.952;10.292;2022-12-10T02:34:08;26.48;;;9.88;;
65315;SDS011;51920;53.952;10.292;2022-12-10T02:36:35;24.63;;;9.55;;
65315;SDS011;51920;53.952;10.292;2022-12-10T02:39:06;20.87;;;8.20;;
65315;SDS011;51920;53.952;10.292;2022-12-10T02:41:42;26.88;;;8.90;;
65315;SDS011;51920;53.952;10.292;2022-12-10T02:44:12;30.02;;;9.68;;
65315;SDS011;51920;53.952;10.292;2022-12-10T02:46:43;25.25;;;9.48;;
65315;SDS011;51920;53.952;10.292;2022-12-10T02:49:11;29.17;;;10.32;;
65315;SDS011;51920;53.952;10.292;2022-12-10T02:51:39;27.77;;;9.40;;
65315;SDS011;51920;53.952;10.292;2022-12-10T02:54:05;28.25;;;10.07;;
65315;SDS011;51920;53.952;10.292;2022-12-10T02:56:52;25.77;;;9.90;;
65315;SDS011;51920;53.952;10.292;2022-12-10T02:59:28;27.23;;;9.25;;
65315;SDS011;51920;53.952;10.292;2022-12-10T03:02:07;23.33;;;8.75;;
65315;SDS011;51920;53.952;10.292;2022-12-10T03:04:50;19.95;;;7.75;;
65315;SDS011;51920;53.952;10.292;2022-12-10T03:07:31;19.67;;;8.27;;
65315;SDS011;51920;53.952;10.292;2022-12-10T03:10:11;19.87;;;7.83;;
65315;SDS011;51920;53.952;10.292;2022-12-10T03:12:44;19.88;;;8.05;;
65315;SDS011;51920;53.952;10.292;2022-12-10T03:15:14;23.95;;;8.95;;
65315;SDS011;51920;53.952;10.292;2022-12-10T03:17:43;21.60;;;8.35;;
65315;SDS011;51920;53.952;10.292;2022-12-10T03:20:11;21.02;;;8.73;;
65315;SDS011;51920;53.952;10.292;2022-12-10T03:22:38;18.17;;;7.93;;
65315;SDS011;51920;53.952;10.292;2022-12-10T03:25:07;21.73;;;8.80;;
65315;SDS011;51920;53.952;10.292;2022-12-10T03:27:36;24.85;;;9.60;;
65315;SDS011;51920;53.952;10.292;2022-12-10T03:30:04;25.10;;;9.20;;
65315;SDS011;51920;53.952;10.292;2022-12-10T03:32:30;23.45;;;8.93;;
65315;SDS011;51920;53.952;10.292;2022-12-10T03:34:56;20.77;;;8.40;;
65315;SDS011;51920;53.952;10.292;2022-12-10T03:37:23;22.17;;;8.48;;
65315;SDS011;51920;53.952;10.292;2022-12-10T03:39:50;18.98;;;7.60;;
65315;SDS011;51920;53.952;10.292;2022-12-10T03:42:16;20.10;;;7.77;;
65315;SDS011;51920;53.952;10.292;2022-12-10T03:44:42;20.52;;;7.90;;
65315;SDS011;51920;53.952;10.292;2022-12-10T03:47:09;17.43;;;7.47;;
65315;SDS011;51920;53.952;10.292;2022-12-10T03:49:38;18.35;;;7.43;;
65315;SDS011;51920;53.952;10.292;2022-12-10T03:52:03;20.48;;;8.05;;
65315;SDS011;51920;53.952;10.292;2022-12-10T03:54:29;18.37;;;7.87;;
65315;SDS011;51920;53.952;10.292;2022-12-10T03:56:54;20.33;;;8.63;;
65315;SDS011;51920;53.952;10.292;2022-12-10T03:59:20;21.60;;;8.60;;
65315;SDS011;51920;53.952;10.292;2022-12-10T04:01:45;23.17;;;9.43;;
65315;SDS011;51920;53.952;10.292;2022-12-10T04:04:11;19.87;;;8.07;;
65315;SDS011;51920;53.952;10.292;2022-12-10T04:06:37;20.40;;;7.70;;
65315;SDS011;51920;53.952;10.292;2022-12-10T04:09:03;19.33;;;7.75;;
65315;SDS011;51920;53.952;10.292;2022-12-10T04:11:29;18.13;;;7.80;;
65315;SDS011;51920;53.952;10.292;2022-12-10T04:13:54;19.17;;;8.53;;
65315;SDS011;51920;53.952;10.292;2022-12-10T04:16:38;22.13;;;7.93;;
65315;SDS011;51920;53.952;10.292;2022-12-10T04:19:05;19.37;;;7.97;;
65315;SDS011;51920;53.952;10.292;2022-12-10T04:21:33;19.50;;;7.63;;
65315;SDS011;51920;53.952;10.292;2022-12-10T04:24:19;21.02;;;8.85;;
65315;SDS011;51920;53.952;10.292;2022-12-10T04:27:10;21.58;;;7.63;;
65315;SDS011;51920;53.952;10.292;2022-12-10T04:29:38;19.20;;;7.82;;
65315;SDS011;51920;53.952;10.292;2022-12-10T04:32:04;23.10;;;8.10;;
65315;SDS011;51920;53.952;10.292;2022-12-10T04:34:29;17.75;;;8.18;;
65315;SDS011;51920;53.952;10.292;2022-12-10T04:36:56;21.20;;;9.10;;
65315;SDS011;51920;53.952;10.292;2022-12-10T04:39:23;23.58;;;9.55;;
65315;SDS011;51920;53.952;10.292;2022-12-10T04:41:49;20.47;;;8.50;;
65315;SDS011;51920;53.952;10.292;2022-12-10T04:44:14;21.48;;;8.48;;
65315;SDS011;51920;53.952;10.292;2022-12-10T04:46:40;20.63;;;8.60;;
65315;SDS011;51920;53.952;10.292;2022-12-10T04:49:05;20.83;;;7.80;;
65315;SDS011;51920;53.952;10.292;2022-12-10T04:51:31;19.83;;;8.27;;
65315;SDS011;51920;53.952;10.292;2022-12-10T04:53:59;20.27;;;8.50;;
65315;SDS011;51920;53.952;10.292;2022-12-10T04:56:26;18.88;;;7.75;;
65315;SDS011;51920;53.952;10.292;2022-12-10T04:58:51;19.25;;;8.60;;
65315;SDS011;51920;53.952;10.292;2022-12-10T05:01:17;21.20;;;8.60;;
65315;SDS011;51920;53.952;10.292;2022-12-10T05:03:44;20.98;;;8.35;;
65315;SDS011;51920;53.952;10.292;2022-12-10T05:06:11;19.97;;;8.83;;
65315;SDS011;51920;53.952;10.292;2022-12-10T05:08:38;18.88;;;8.15;;
65315;SDS011;51920;53.952;10.292;2022-12-10T05:11:06;19.58;;;7.80;;
65315;SDS011;51920;53.952;10.292;2022-12-10T05:13:34;19.67;;;8.20;;
65315;SDS011;51920;53.952;10.292;2022-12-10T05:16:03;19.00;;;8.47;;
65315;SDS011;51920;53.952;10.292;2022-12-10T05:18:30;18.00;;;8.00;;
65315;SDS011;51920;53.952;10.292;2022-12-10T05:20:59;17.03;;;7.40;;
65315;SDS011;51920;53.952;10.292;2022-12-10T05:23:29;18.98;;;7.65;;
65315;SDS011;51920;53.952;10.292;2022-12-10T05:25:59;17.73;;;7.80;;
65315;SDS011;51920;53.952;10.292;2022-12-10T05:28:29;18.30;;;7.80;;
65315;SDS011;51920;53.952;10.292;2022-12-10T05:30:56;15.48;;;7.35;;
65315;SDS011;51920;53.952;10.292;2022-12-10T05:33:22;19.20;;;7.80;;
65315;SDS011;51920;53.952;10.292;2022-12-10T05:35:55;17.23;;;8.03;;
65315;SDS011;51920;53.952;10.292;2022-12-10T05:38:21;18.45;;;7.57;;
65315;SDS011;51920;53.952;10.292;2022-12-10T05:40:47;17.88;;;7.45;;
65315;SDS011;51920;53.952;10.292;2022-12-10T05:43:13;22.33;;;8.43;;
65315;SDS011;51920;53.952;10.292;2022-12-10T05:45:38;20.63;;;8.35;;
65315;SDS011;51920;53.952;10.292;2022-12-10T05:48:04;20.03;;;7.97;;
65315;SDS011;51920;53.952;10.292;2022-12-10T05:50:30;19.53;;;8.23;;
65315;SDS011;51920;53.952;10.292;2022-12-10T05:52:56;19.60;;;7.40;;
65315;SDS011;51920;53.952;10.292;2022-12-10T05:55:25;17.17;;;7.50;;
65315;SDS011;51920;53.952;10.292;2022-12-10T05:57:59;17.80;;;7.55;;
65315;SDS011;51920;53.952;10.292;2022-12-10T06:00:24;17.70;;;7.93;;
65315;SDS011;51920;53.952;10.292;2022-12-10T06:02:50;16.60;;;7.18;;
65315;SDS011;51920;53.952;10.292;2022-12-10T06:05:16;17.50;;;7.17;;
65315;SDS011;51920;53.952;10.292;2022-12-10T06:07:42;16.25;;;7.40;;
65315;SDS011;51920;53.952;10.292;2022-12-10T06:10:08;16.83;;;7.30;;
65315;SDS011;51920;53.952;10.292;2022-12-10T06:12:33;17.70;;;6.50;;
65315;SDS011;51920;53.952;10.292;2022-12-10T06:14:59;17.07;;;7.20;;
65315;SDS011;51920;53.952;10.292;2022-12-10T06:17:24;15.90;;;7.17;;
65315;SDS011;51920;53.952;10.292;2022-12-10T06:19:49;18.42;;;7.60;;
65315;SDS011;51920;53.952;10.292;2022-12-10T06:22:15;17.33;;;7.60;;
65315;SDS011;51920;53.952;10.292;2022-12-10T06:24:40;19.03;;;7.47;;
65315;SDS011;51920;53.952;10.292;2022-12-10T06:27:05;13.87;;;6.53;;
65315;SDS011;51920;53.952;10.292;2022-12-10T06:29:31;19.30;;;7.70;;
65315;SDS011;51920;53.952;10.292;2022-12-10T06:31:56;18.13;;;8.07;;
65315;SDS011;51920;53.952;10.292;2022-12-10T06:34:21;17.67;;;8.17;;
65315;SDS011;51920;53.952;10.292;2022-12-10T06:36:47;19.80;;;7.67;;
65315;SDS011;51920;53.952;10.292;2022-12-10T06:39:12;19.73;;;7.67;;
65315;SDS011;51920;53.952;10.292;2022-12-10T06:41:38;20.73;;;8.77;;
65315;SDS011;51920;53.952;10.292;2022-12-10T06:44:07;21.20;;;8.82;;
65315;SDS011;51920;53.952;10.292;2022-12-10T06:46:35;20.50;;;8.70;;
65315;SDS011;51920;53.952;10.292;2022-12-10T06:49:01;20.20;;;8.97;;
65315;SDS011;51920;53.952;10.292;2022-12-10T06:51:27;22.90;;;8.73;;
65315;SDS011;51920;53.952;10.292;2022-12-10T06:53:53;20.23;;;9.18;;
65315;SDS011;51920;53.952;10.292;2022-12-10T06:56:18;20.10;;;8.97;;
65315;SDS011;51920;53.952;10.292;2022-12-10T06:58:44;22.80;;;9.32;;
65315;SDS011;51920;53.952;10.292;2022-12-10T07:01:12;21.33;;;8.27;;
65315;SDS011;51920;53.952;10.292;2022-12-10T07:03:39;19.67;;;7.78;;
65315;SDS011;51920;53.952;10.292;2022-12-10T07:06:06;19.23;;;7.88;;
65315;SDS011;51920;53.952;10.292;2022-12-10T07:08:33;18.58;;;7.70;;
65315;SDS011;51920;53.952;10.292;2022-12-10T07:11:03;19.33;;;7.40;;
65315;SDS011;51920;53.952;10.292;2022-12-10T07:13:32;16.10;;;7.13;;
65315;SDS011;51920;53.952;10.292;2022-12-10T07:15:58;14.90;;;6.78;;
65315;SDS011;51920;53.952;10.292;2022-12-10T07:18:24;19.03;;;7.57;;
65315;SDS011;51920;53.952;10.292;2022-12-10T07:20:49;20.50;;;7.93;;
65315;SDS011;51920;53.952;10.292;2022-12-10T07:23:15;17.83;;;7.60;;
65315;SDS011;51920;53.952;10.292;2022-12-10T07:25:40;20.60;;;7.83;;
65315;SDS011;51920;53.952;10.292;2022-12-10T07:28:05;22.37;;;8.43;;
65315;SDS011;51920;53.952;10.292;2022-12-10T07:30:31;20.60;;;8.03;;
65315;SDS011;51920;53.952;10.292;2022-12-10T07:32:57;20.83;;;7.83;;
65315;SDS011;51920;53.952;10.292;2022-12-10T07:35:22;19.88;;;7.82;;
65315;SDS011;51920;53.952;10.292;2022-12-10T07:37:47;21.90;;;8.80;;
65315;SDS011;51920;53.952;10.292;2022-12-10T07:40:13;20.23;;;8.83;;
65315;SDS011;51920;53.952;10.292;2022-12-10T07:42:38;19.97;;;7.90;;
65315;SDS011;51920;53.952;10.292;2022-12-10T07:45:04;21.73;;;8.60;;
65315;SDS011;51920;53.952;10.292;2022-12-10T07:47:30;21.10;;;8.13;;
65315;SDS011;51920;53.952;10.292;2022-12-10T07:49:55;19.43;;;7.90;;
65315;SDS011;51920;53.952;10.292;2022-12-10T07:52:21;22.95;;;8.65;;
65315;SDS011;51920;53.952;10.292;2022-12-10T07:54:46;20.67;;;8.10;;
65315;SDS011;51920;53.952;10.292;2022-12-10T07:57:11;21.53;;;8.43;;
65315;SDS011;51920;53.952;10.292;2022-12-10T07:59:37;23.47;;;8.90;;
65315;SDS011;51920;53.952;10.292;2022-12-10T08:02:02;22.80;;;8.43;;
65315;SDS011;51920;53.952;10.292;2022-12-10T08:04:28;22.50;;;8.57;;
65315;SDS011;51920;53.952;10.292;2022-12-10T08:06:55;18.07;;;7.53;;
65315;SDS011;51920;53.952;10.292;2022-12-10T08:09:20;22.45;;;7.80;;
65315;SDS011;51920;53.952;10.292;2022-12-10T08:11:46;18.67;;;7.87;;
65315;SDS011;51920;53.952;10.292;2022-12-10T08:14:11;18.13;;;7.93;;
65315;SDS011;51920;53.952;10.292;2022-12-10T08:16:37;17.38;;;7.18;;
65315;SDS011;51920;53.952;10.292;2022-12-10T08:19:02;22.47;;;8.70;;
65315;SDS011;51920;53.952;10.292;2022-12-10T08:21:29;21.80;;;8.52;;
65315;SDS011;51920;53.952;10.292;2022-12-10T08:23:55;20.23;;;7.50;;
65315;SDS011;51920;53.952;10.292;2022-12-10T08:26:22;21.33;;;7.65;;
65315;SDS011;51920;53.952;10.292;2022-12-10T08:28:49;19.77;;;7.85;;
65315;SDS011;51920;53.952;10.292;2022-12-10T08:31:16;18.88;;;7.78;;
65315;SDS011;51920;53.952;10.292;2022-12-10T08:33:43;20.93;;;7.97;;
65315;SDS011;51920;53.952;10.292;2022-12-10T08:36:10;19.35;;;7.75;;
65315;SDS011;51920;53.952;10.292;2022-12-10T08:38:37;19.77;;;8.05;;
65315;SDS011;51920;53.952;10.292;2022-12-10T08:41:09;21.63;;;7.87;;
65315;SDS011;51920;53.952;10.292;2022-12-10T08:43:39;21.35;;;8.20;;
65315;SDS011;51920;53.952;10.292;2022-12-10T08:46:06;19.98;;;7.93;;
65315;SDS011;51920;53.952;10.292;2022-12-10T08:48:33;19.70;;;7.83;;
65315;SDS011;51920;53.952;10.292;2022-12-10T08:50:58;21.00;;;8.07;;
65315;SDS011;51920;53.952;10.292;2022-12-10T08:53:24;18.00;;;7.20;;
65315;SDS011;51920;53.952;10.292;2022-12-10T08:55:50;18.38;;;7.78;;
65315;SDS011;51920;53.952;10.292;2022-12-10T08:58:16;19.63;;;7.20;;
65315;SDS011;51920;53.952;10.292;2022-12-10T09:00:41;22.63;;;8.35;;
65315;SDS011;51920;53.952;10.292;2022-12-10T09:03:08;18.20;;;7.57;;
65315;SDS011;51920;53.952;10.292;2022-12-10T09:05:34;19.95;;;7.93;;
65315;SDS011;51920;53.952;10.292;2022-12-10T09:08:00;19.45;;;8.15;;
65315;SDS011;51920;53.952;10.292;2022-12-10T09:10:26;20.40;;;8.03;;
65315;SDS011;51920;53.952;10.292;2022-12-10T09:12:51;16.57;;;6.90;;
65315;SDS011;51920;53.952;10.292;2022-12-10T09:15:17;18.65;;;7.63;;
65315;SDS011;51920;53.952;10.292;2022-12-10T09:17:42;17.23;;;7.73;;
65315;SDS011;51920;53.952;10.292;2022-12-10T09:20:08;19.63;;;7.53;;
65315;SDS011;51920;53.952;10.292;2022-12-10T09:22:33;15.65;;;7.18;;
65315;SDS011;51920;53.952;10.292;2022-12-10T09:25:03;17.43;;;7.10;;
65315;SDS011;51920;53.952;10.292;2022-12-10T09:27:30;18.25;;;7.18;;
65315;SDS011;51920;53.952;10.292;2022-12-10T09:29:55;18.95;;;7.75;;
65315;SDS011;51920;53.952;10.292;2022-12-10T09:32:21;18.30;;;7.23;;
65315;SDS011;51920;53.952;10.292;2022-12-10T09:34:46;17.47;;;6.83;;
65315;SDS011;51920;53.952;10.292;2022-12-10T09:37:15;14.48;;;6.47;;
65315;SDS011;51920;53.952;10.292;2022-12-10T09:39:40;13.93;;;6.10;;
65315;SDS011;51920;53.952;10.292;2022-12-10T09:44:50;14.75;;;5.82;;
65315;SDS011;51920;53.952;10.292;2022-12-10T09:47:26;14.95;;;7.07;;
65315;SDS011;51920;53.952;10.292;2022-12-10T09:50:23;16.35;;;6.88;;
65315;SDS011;51920;53.952;10.292;2022-12-10T09:52:59;16.15;;;6.45;;
65315;SDS011;51920;53.952;10.292;2022-12-10T09:55:36;16.00;;;7.17;;
65315;SDS011;51920;53.952;10.292;2022-12-10T09:58:05;16.58;;;6.70;;
65315;SDS011;51920;53.952;10.292;2022-12-10T10:00:39;16.80;;;6.25;;
65315;SDS011;51920;53.952;10.292;2022-12-10T10:03:06;15.85;;;6.45;;
65315;SDS011;51920;53.952;10.292;2022-12-10T10:05:40;15.10;;;6.22;;
65315;SDS011;51920;53.952;10.292;2022-12-10T10:08:28;14.17;;;6.10;;
65315;SDS011;51920;53.952;10.292;2022-12-10T10:10:56;15.02;;;6.47;;
65315;SDS011;51920;53.952;10.292;2022-12-10T10:13:40;15.07;;;6.65;;
65315;SDS011;51920;53.952;10.292;2022-12-10T10:21:27;17.17;;;6.60;;
65315;SDS011;51920;53.952;10.292;2022-12-10T10:23:55;15.55;;;6.20;;
65315;SDS011;51920;53.952;10.292;2022-12-10T10:26:23;14.63;;;5.80;;
65315;SDS011;51920;53.952;10.292;2022-12-10T10:28:53;15.70;;;5.97;;
65315;SDS011;51920;53.952;10.292;2022-12-10T10:31:24;15.70;;;6.45;;
65315;SDS011;51920;53.952;10.292;2022-12-10T10:33:58;14.97;;;6.27;;
65315;SDS011;51920;53.952;10.292;2022-12-10T10:36:29;17.60;;;6.97;;
65315;SDS011;51920;53.952;10.292;2022-12-10T10:39:07;34.28;;;14.00;;
65315;SDS011;51920;53.952;10.292;2022-12-10T10:41:35;18.80;;;7.63;;
65315;SDS011;51920;53.952;10.292;2022-12-10T10:44:04;28.73;;;11.50;;
65315;SDS011;51920;53.952;10.292;2022-12-10T10:46:39;33.83;;;13.23;;
65315;SDS011;51920;53.952;10.292;2022-12-10T10:49:39;18.67;;;7.05;;
65315;SDS011;51920;53.952;10.292;2022-12-10T10:52:05;15.93;;;6.68;;
65315;SDS011;51920;53.952;10.292;2022-12-10T10:54:38;16.02;;;6.00;;
65315;SDS011;51920;53.952;10.292;2022-12-10T10:57:15;15.20;;;6.07;;
65315;SDS011;51920;53.952;10.292;2022-12-10T10:59:49;15.83;;;6.47;;
65315;SDS011;51920;53.952;10.292;2022-12-10T11:04:51;16.08;;;7.22;;
65315;SDS011;51920;53.952;10.292;2022-12-10T11:07:22;19.48;;;8.23;;
65315;SDS011;51920;53.952;10.292;2022-12-10T11:09:50;19.73;;;8.43;;
65315;SDS011;51920;53.952;10.292;2022-12-10T11:12:37;26.77;;;10.47;;
65315;SDS011;51920;53.952;10.292;2022-12-10T11:15:24;18.77;;;8.45;;
65315;SDS011;51920;53.952;10.292;2022-12-10T11:17:50;16.10;;;7.07;;
65315;SDS011;51920;53.952;10.292;2022-12-10T11:20:19;25.00;;;12.57;;
65315;SDS011;51920;53.952;10.292;2022-12-10T11:22:54;28.88;;;14.35;;
65315;SDS011;51920;53.952;10.292;2022-12-10T11:31:18;16.17;;;7.05;;
65315;SDS011;51920;53.952;10.292;2022-12-10T11:44:55;16.52;;;6.95;;
65315;SDS011;51920;53.952;10.292;2022-12-10T11:50:25;15.40;;;6.50;;
65315;SDS011;51920;53.952;10.292;2022-12-10T11:53:12;20.30;;;7.60;;
65315;SDS011;51920;53.952;10.292;2022-12-10T12:12:11;21.33;;;7.72;;
65315;SDS011;51920;53.952;10.292;2022-12-10T12:14:44;16.92;;;6.55;;
65315;SDS011;51920;53.952;10.292;2022-12-10T12:17:20;18.95;;;7.18;;
65315;SDS011;51920;53.952;10.292;2022-12-10T12:19:55;18.43;;;7.07;;
65315;SDS011;51920;53.952;10.292;2022-12-10T12:25:09;14.77;;;6.75;;
65315;SDS011;51920;53.952;10.292;2022-12-10T12:27:51;17.92;;;7.13;;
65315;SDS011;51920;53.952;10.292;2022-12-10T12:30:21;17.48;;;6.57;;
65315;SDS011;51920;53.952;10.292;2022-12-10T12:35:42;17.85;;;6.97;;
65315;SDS011;51920;53.952;10.292;2022-12-10T12:41:12;15.00;;;6.53;;
65315;SDS011;51920;53.952;10.292;2022-12-10T12:46:44;16.43;;;6.30;;
65315;SDS011;51920;53.952;10.292;2022-12-10T12:51:54;14.93;;;6.10;;
65315;SDS011;51920;53.952;10.292;2022-12-10T12:54:25;16.85;;;7.03;;
65315;SDS011;51920;53.952;10.292;2022-12-10T12:56:53;17.97;;;6.83;;
65315;SDS011;51920;53.952;10.292;2022-12-10T13:04:21;17.65;;;6.80;;
65315;SDS011;51920;53.952;10.292;2022-12-10T13:12:30;17.30;;;6.78;;
65315;SDS011;51920;53.952;10.292;2022-12-10T13:15:39;17.73;;;6.63;;
65315;SDS011;51920;53.952;10.292;2022-12-10T13:18:03;18.67;;;7.65;;
65315;SDS011;51920;53.952;10.292;2022-12-10T13:21:15;19.58;;;7.57;;
65315;SDS011;51920;53.952;10.292;2022-12-10T13:23:53;26.13;;;10.90;;
65315;SDS011;51920;53.952;10.292;2022-12-10T13:26:30;23.58;;;9.50;;
65315;SDS011;51920;53.952;10.292;2022-12-10T13:28:57;16.47;;;6.70;;
65315;SDS011;51920;53.952;10.292;2022-12-10T13:32:02;17.52;;;7.53;;
65315;SDS011;51920;53.952;10.292;2022-12-10T13:34:38;15.85;;;7.00;;
65315;SDS011;51920;53.952;10.292;2022-12-10T13:37:05;17.50;;;6.60;;
65315;SDS011;51920;53.952;10.292;2022-12-10T13:39:48;15.40;;;6.50;;
65315;SDS011;51920;53.952;10.292;2022-12-10T13:47:53;15.50;;;5.97;;
65315;SDS011;51920;53.952;10.292;2022-12-10T13:50:41;16.70;;;6.45;;
65315;SDS011;51920;53.952;10.292;2022-12-10T14:06:51;19.35;;;8.60;;
65315;SDS011;51920;53.952;10.292;2022-12-10T14:11:57;15.97;;;6.67;;
65315;SDS011;51920;53.952;10.292;2022-12-10T14:14:36;16.02;;;6.18;;
65315;SDS011;51920;53.952;10.292;2022-12-10T14:17:05;18.35;;;7.07;;
65315;SDS011;51920;53.952;10.292;2022-12-10T14:19:36;16.05;;;6.50;;
65315;SDS011;51920;53.952;10.292;2022-12-10T14:22:04;17.35;;;6.97;;
65315;SDS011;51920;53.952;10.292;2022-12-10T14:24:34;17.43;;;7.30;;
65315;SDS011;51920;53.952;10.292;2022-12-10T14:27:13;15.73;;;6.40;;
65315;SDS011;51920;53.952;10.292;2022-12-10T14:29:44;17.38;;;6.70;;
65315;SDS011;51920;53.952;10.292;2022-12-10T14:32:18;20.80;;;7.78;;
65315;SDS011;51920;53.952;10.292;2022-12-10T14:34:47;14.80;;;6.47;;
65315;SDS011;51920;53.952;10.292;2022-12-10T14:37:16;18.10;;;7.33;;
65315;SDS011;51920;53.952;10.292;2022-12-10T14:39:44;18.08;;;7.45;;
65315;SDS011;51920;53.952;10.292;2022-12-10T14:42:09;17.37;;;7.43;;
65315;SDS011;51920;53.952;10.292;2022-12-10T14:44:39;17.30;;;6.57;;
65315;SDS011;51920;53.952;10.292;2022-12-10T14:47:06;17.65;;;7.15;;
65315;SDS011;51920;53.952;10.292;2022-12-10T14:49:38;16.08;;;5.72;;
65315;SDS011;51920;53.952;10.292;2022-12-10T14:52:08;11.27;;;5.37;;
65315;SDS011;51920;53.952;10.292;2022-12-10T14:54:36;12.73;;;6.03;;
65315;SDS011;51920;53.952;10.292;2022-12-10T14:57:05;13.50;;;5.95;;
65315;SDS011;51920;53.952;10.292;2022-12-10T14:59:43;13.13;;;5.35;;
65315;SDS011;51920;53.952;10.292;2022-12-10T15:02:22;12.52;;;5.82;;
65315;SDS011;51920;53.952;10.292;2022-12-10T15:04:51;14.27;;;5.90;;
65315;SDS011;51920;53.952;10.292;2022-12-10T15:07:18;14.70;;;6.07;;
65315;SDS011;51920;53.952;10.292;2022-12-10T15:09:48;16.13;;;6.35;;
65315;SDS011;51920;53.952;10.292;2022-12-10T15:12:57;15.00;;;6.53;;
65315;SDS011;51920;53.952;10.292;2022-12-10T15:15:17;14.98;;;6.50;;
65315;SDS011;51920;53.952;10.292;2022-12-10T15:20:46;15.68;;;6.90;;
65315;SDS011;51920;53.952;10.292;2022-12-10T15:23:18;15.80;;;5.82;;
65315;SDS011;51920;53.952;10.292;2022-12-10T15:28:34;18.33;;;7.60;;
65315;SDS011;51920;53.952;10.292;2022-12-10T15:33:44;17.98;;;7.22;;
65315;SDS011;51920;53.952;10.292;2022-12-10T15:36:20;16.50;;;7.10;;
65315;SDS011;51920;53.952;10.292;2022-12-10T15:38:50;16.60;;;6.93;;
65315;SDS011;51920;53.952;10.292;2022-12-10T15:44:01;19.13;;;8.65;;
65315;SDS011;51920;53.952;10.292;2022-12-10T15:46:31;18.95;;;7.60;;
65315;SDS011;51920;53.952;10.292;2022-12-10T15:49:00;14.63;;;6.13;;
65315;SDS011;51920;53.952;10.292;2022-12-10T15:51:25;16.98;;;7.38;;
65315;SDS011;51920;53.952;10.292;2022-12-10T15:53:50;15.10;;;7.40;;
65315;SDS011;51920;53.952;10.292;2022-12-10T15:56:34;14.90;;;6.90;;
65315;SDS011;51920;53.952;10.292;2022-12-10T15:58:59;14.85;;;7.15;;
65315;SDS011;51920;53.952;10.292;2022-12-10T16:01:24;12.03;;;4.97;;
65315;SDS011;51920;53.952;10.292;2022-12-10T16:03:50;14.07;;;5.60;;
65315;SDS011;51920;53.952;10.292;2022-12-10T16:06:15;13.00;;;5.50;;
65315;SDS011;51920;53.952;10.292;2022-12-10T16:08:41;13.60;;;6.65;;
65315;SDS011;51920;53.952;10.292;2022-12-10T16:11:12;14.83;;;6.33;;
65315;SDS011;51920;53.952;10.292;2022-12-10T16:13:43;15.95;;;7.53;;
65315;SDS011;51920;53.952;10.292;2022-12-10T16:16:22;12.67;;;5.77;;
65315;SDS011;51920;53.952;10.292;2022-12-10T16:18:49;12.77;;;6.00;;
65315;SDS011;51920;53.952;10.292;2022-12-10T16:21:14;17.17;;;8.27;;
65315;SDS011;51920;53.952;10.292;2022-12-10T16:23:42;14.15;;;6.60;;
65315;SDS011;51920;53.952;10.292;2022-12-10T16:26:18;17.35;;;8.52;;
65315;SDS011;51920;53.952;10.292;2022-12-10T16:28:46;18.37;;;7.73;;
65315;SDS011;51920;53.952;10.292;2022-12-10T16:31:17;16.40;;;7.20;;